sensor_id;sensor_type;location;lat;lon;timestamp;pressure;altitude;pressure_sealevel;temperature;humidity
22283;BME280;11310;51.528;21.204;2022-09-29T00:02:04;98457.28;;;10.01;100.00
22283;BME280;11310;51.528;21.204;2022-09-29T00:04:33;98472.91;;;10.03;100.00
22283;BME280;11310;51.528;21.204;2022-09-29T00:07:02;98461.69;;;10.01;100.00
22283;BME280;11310;51.528;21.204;2022-09-29T00:09:30;98465.88;;;10.03;100.00
22283;BME280;11310;51.528;21.204;2022-09-29T00:12:01;98467.75;;;10.01;100.00
22283;BME280;11310;51.528;21.204;2022-09-29T00:14:31;98480.03;;;10.01;100.00
22283;BME280;11310;51.528;21.204;2022-09-29T00:16:59;98483.59;;;10.00;100.00
22283;BME280;11310;51.528;21.204;2022-09-29T00:19:28;98482.03;;;9.97;100.00
22283;BME280;11310;51.528;21.204;2022-09-29T00:21:59;98476.88;;;9.96;100.00
22283;BME280;11310;51.528;21.204;2022-09-29T00:24:28;98464.63;;;9.96;100.00
22283;BME280;11310;51.528;21.204;2022-09-29T00:26:57;98457.59;;;9.97;100.00
22283;BME280;11310;51.528;21.204;2022-09-29T00:29:27;98461.19;;;9.96;100.00
22283;BME280;11310;51.528;21.204;2022-09-29T00:31:56;98442.09;;;9.94;100.00
22283;BME280;11310;51.528;21.204;2022-09-29T00:34:24;98436.84;;;9.94;100.00
22283;BME280;11310;51.528;21.204;2022-09-29T00:36:53;98431.84;;;9.91;100.00
22283;BME280;11310;51.528;21.204;2022-09-29T00:39:22;98429.31;;;9.89;100.00
22283;BME280;11310;51.528;21.204;2022-09-29T00:41:50;98422.53;;;9.87;100.00
22283;BME280;11310;51.528;21.204;2022-09-29T00:44:56;98415.81;;;9.83;100.00
22283;BME280;11310;51.528;21.204;2022-09-29T00:47:27;98420.28;;;9.81;100.00
22283;BME280;11310;51.528;21.204;2022-09-29T00:49:58;98433.53;;;9.79;100.00
22283;BME280;11310;51.528;21.204;2022-09-29T00:52:33;98439.69;;;9.78;100.00
22283;BME280;11310;51.528;21.204;2022-09-29T00:55:06;98444.00;;;9.79;100.00
22283;BME280;11310;51.528;21.204;2022-09-29T00:57:39;98440.34;;;9.82;100.00
22283;BME280;11310;51.528;21.204;2022-09-29T01:00:13;98454.13;;;9.84;100.00
22283;BME280;11310;51.528;21.204;2022-09-29T01:02:45;98471.53;;;9.85;100.00
22283;BME280;11310;51.528;21.204;2022-09-29T01:05:18;98465.38;;;9.86;100.00
22283;BME280;11310;51.528;21.204;2022-09-29T01:07:50;98476.47;;;9.89;100.00
22283;BME280;11310;51.528;21.204;2022-09-29T01:10:19;98468.63;;;9.89;100.00
22283;BME280;11310;51.528;21.204;2022-09-29T01:13:28;98467.56;;;9.92;100.00
22283;BME280;11310;51.528;21.204;2022-09-29T01:15:59;98473.53;;;9.94;100.00
22283;BME280;11310;51.528;21.204;2022-09-29T01:18:29;98473.53;;;9.94;100.00
22283;BME280;11310;51.528;21.204;2022-09-29T01:21:07;98471.03;;;9.92;100.00
22283;BME280;11310;51.528;21.204;2022-09-29T01:27:14;98476.28;;;9.92;100.00
22283;BME280;11310;51.528;21.204;2022-09-29T01:33:02;98469.22;;;9.93;100.00
22283;BME280;11310;51.528;21.204;2022-09-29T01:35:44;98493.56;;;9.95;100.00
22283;BME280;11310;51.528;21.204;2022-09-29T01:38:30;98492.19;;;9.89;100.00
22283;BME280;11310;51.528;21.204;2022-09-29T01:41:08;98499.94;;;9.91;100.00
22283;BME280;11310;51.528;21.204;2022-09-29T01:43:42;98489.47;;;9.91;100.00
22283;BME280;11310;51.528;21.204;2022-09-29T01:46:19;98491.84;;;9.94;100.00
22283;BME280;11310;51.528;21.204;2022-09-29T01:48:53;98489.25;;;9.94;100.00
22283;BME280;11310;51.528;21.204;2022-09-29T01:51:28;98486.63;;;9.94;100.00
22283;BME280;11310;51.528;21.204;2022-09-29T01:54:02;98495.41;;;9.93;100.00
22283;BME280;11310;51.528;21.204;2022-09-29T01:56:35;98492.59;;;9.96;100.00
22283;BME280;11310;51.528;21.204;2022-09-29T01:59:11;98508.31;;;9.96;100.00
22283;BME280;11310;51.528;21.204;2022-09-29T02:01:45;98506.41;;;9.98;100.00
22283;BME280;11310;51.528;21.204;2022-09-29T02:04:18;98508.31;;;9.96;100.00
22283;BME280;11310;51.528;21.204;2022-09-29T02:06:54;98507.78;;;10.03;100.00
22283;BME280;11310;51.528;21.204;2022-09-29T02:09:28;98514.66;;;10.06;100.00
22283;BME280;11310;51.528;21.204;2022-09-29T02:11:59;98504.16;;;10.06;100.00
22283;BME280;11310;51.528;21.204;2022-09-29T02:14:34;98508.97;;;10.12;100.00
22283;BME280;11310;51.528;21.204;2022-09-29T02:17:07;98516.84;;;10.12;100.00
22283;BME280;11310;51.528;21.204;2022-09-29T02:19:41;98529.94;;;10.12;100.00
22283;BME280;11310;51.528;21.204;2022-09-29T02:22:11;98527.53;;;10.09;100.00
22283;BME280;11310;51.528;21.204;2022-09-29T02:24:40;98537.06;;;10.10;100.00
22283;BME280;11310;51.528;21.204;2022-09-29T02:27:10;98541.38;;;10.11;100.00
22283;BME280;11310;51.528;21.204;2022-09-29T02:29:39;98540.41;;;10.12;100.00
22283;BME280;11310;51.528;21.204;2022-09-29T02:32:08;98536.03;;;10.12;100.00
22283;BME280;11310;51.528;21.204;2022-09-29T02:34:42;98541.47;;;10.09;100.00
22283;BME280;11310;51.528;21.204;2022-09-29T02:37:29;98542.31;;;10.10;100.00
22283;BME280;11310;51.528;21.204;2022-09-29T02:40:09;98547.75;;;10.07;100.00
22283;BME280;11310;51.528;21.204;2022-09-29T02:42:51;98542.59;;;10.05;100.00
22283;BME280;11310;51.528;21.204;2022-09-29T02:45:36;98550.56;;;10.04;100.00
22283;BME280;11310;51.528;21.204;2022-09-29T02:48:16;98539.34;;;10.02;100.00
22283;BME280;11310;51.528;21.204;2022-09-29T02:51:00;98541.00;;;10.03;100.00
22283;BME280;11310;51.528;21.204;2022-09-29T02:53:40;98547.09;;;10.03;100.00
22283;BME280;11310;51.528;21.204;2022-09-29T02:56:18;98534.50;;;9.96;100.00
22283;BME280;11310;51.528;21.204;2022-09-29T02:58:55;98546.47;;;10.00;100.00
22283;BME280;11310;51.528;21.204;2022-09-29T03:01:24;98551.72;;;10.00;100.00
22283;BME280;11310;51.528;21.204;2022-09-29T03:03:53;98562.28;;;9.98;100.00
22283;BME280;11310;51.528;21.204;2022-09-29T03:06:23;98571.19;;;9.96;100.00
22283;BME280;11310;51.528;21.204;2022-09-29T03:08:52;98568.75;;;9.93;100.00
22283;BME280;11310;51.528;21.204;2022-09-29T03:11:21;98565.31;;;9.92;100.00
22283;BME280;11310;51.528;21.204;2022-09-29T03:13:50;98566.25;;;9.91;100.00
22283;BME280;11310;51.528;21.204;2022-09-29T03:16:19;98568.03;;;9.91;100.00
22283;BME280;11310;51.528;21.204;2022-09-29T03:18:48;98564.47;;;9.92;100.00
22283;BME280;11310;51.528;21.204;2022-09-29T03:21:17;98569.72;;;9.92;100.00
22283;BME280;11310;51.528;21.204;2022-09-29T03:23:47;98572.41;;;9.90;100.00
22283;BME280;11310;51.528;21.204;2022-09-29T03:26:21;98572.31;;;9.92;100.00
22283;BME280;11310;51.528;21.204;2022-09-29T03:28:50;98571.56;;;9.90;100.00
22283;BME280;11310;51.528;21.204;2022-09-29T03:31:19;98568.03;;;9.91;100.00
22283;BME280;11310;51.528;21.204;2022-09-29T03:33:48;98562.81;;;9.91;100.00
22283;BME280;11310;51.528;21.204;2022-09-29T03:36:16;98564.47;;;9.92;100.00
22283;BME280;11310;51.528;21.204;2022-09-29T03:38:46;98564.47;;;9.92;100.00
22283;BME280;11310;51.528;21.204;2022-09-29T03:41:15;98573.28;;;9.91;100.00
22283;BME280;11310;51.528;21.204;2022-09-29T03:43:44;98579.44;;;9.90;100.00
22283;BME280;11310;51.528;21.204;2022-09-29T03:46:12;98576.00;;;9.89;100.00
22283;BME280;11310;51.528;21.204;2022-09-29T03:48:42;98583.94;;;9.88;100.00
22283;BME280;11310;51.528;21.204;2022-09-29T03:51:10;98589.19;;;9.88;100.00
22283;BME280;11310;51.528;21.204;2022-09-29T03:53:39;98571.78;;;9.87;100.00
22283;BME280;11310;51.528;21.204;2022-09-29T03:56:09;98571.56;;;9.90;100.00
22283;BME280;11310;51.528;21.204;2022-09-29T03:58:38;98569.91;;;9.89;100.00
22283;BME280;11310;51.528;21.204;2022-09-29T04:01:07;98576.28;;;9.85;100.00
22283;BME280;11310;51.528;21.204;2022-09-29T04:03:36;98579.84;;;9.84;100.00
22283;BME280;11310;51.528;21.204;2022-09-29T04:06:05;98586.03;;;9.83;100.00
22283;BME280;11310;51.528;21.204;2022-09-29T04:08:34;98586.13;;;9.81;100.00
22283;BME280;11310;51.528;21.204;2022-09-29T04:11:05;98591.47;;;9.80;100.00
22283;BME280;11310;51.528;21.204;2022-09-29T04:13:36;98596.69;;;9.80;100.00
22283;BME280;11310;51.528;21.204;2022-09-29T04:16:05;98600.25;;;9.79;100.00
22283;BME280;11310;51.528;21.204;2022-09-29T04:18:34;98598.59;;;9.78;100.00
22283;BME280;11310;51.528;21.204;2022-09-29T04:21:05;98598.78;;;9.75;100.00
22283;BME280;11310;51.528;21.204;2022-09-29T04:23:34;98597.09;;;9.74;100.00
22283;BME280;11310;51.528;21.204;2022-09-29T04:26:05;98592.91;;;9.71;100.00
22283;BME280;11310;51.528;21.204;2022-09-29T04:28:35;98592.91;;;9.71;100.00
22283;BME280;11310;51.528;21.204;2022-09-29T04:31:05;98604.25;;;9.72;100.00
22283;BME280;11310;51.528;21.204;2022-09-29T04:33:34;98607.88;;;9.69;100.00
22283;BME280;11310;51.528;21.204;2022-09-29T04:36:06;98609.03;;;9.65;100.00
22283;BME280;11310;51.528;21.204;2022-09-29T04:38:35;98606.41;;;9.65;100.00
22283;BME280;11310;51.528;21.204;2022-09-29T04:41:04;98614.47;;;9.62;100.00
22283;BME280;11310;51.528;21.204;2022-09-29T04:43:35;98624.28;;;9.59;100.00
22283;BME280;11310;51.528;21.204;2022-09-29T04:46:05;98613.91;;;9.57;100.00
22283;BME280;11310;51.528;21.204;2022-09-29T04:48:35;98625.41;;;9.55;100.00
22283;BME280;11310;51.528;21.204;2022-09-29T04:51:04;98610.66;;;9.54;100.00
22283;BME280;11310;51.528;21.204;2022-09-29T04:53:34;98609.81;;;9.53;100.00
22283;BME280;11310;51.528;21.204;2022-09-29T04:56:05;98618.59;;;9.52;100.00
22283;BME280;11310;51.528;21.204;2022-09-29T04:58:35;98610.84;;;9.51;100.00
22283;BME280;11310;51.528;21.204;2022-09-29T05:01:06;98605.63;;;9.51;100.00
22283;BME280;11310;51.528;21.204;2022-09-29T05:03:36;98602.06;;;9.52;100.00
22283;BME280;11310;51.528;21.204;2022-09-29T05:06:05;98605.63;;;9.51;100.00
22283;BME280;11310;51.528;21.204;2022-09-29T05:08:35;98615.53;;;9.46;100.00
22283;BME280;11310;51.528;21.204;2022-09-29T05:11:04;98621.81;;;9.43;100.00
22283;BME280;11310;51.528;21.204;2022-09-29T05:13:34;98616.66;;;9.42;100.00
22283;BME280;11310;51.528;21.204;2022-09-29T05:16:04;98633.41;;;9.39;100.00
22283;BME280;11310;51.528;21.204;2022-09-29T05:18:33;98642.28;;;9.37;100.00
22283;BME280;11310;51.528;21.204;2022-09-29T05:21:03;98634.44;;;9.37;100.00
22283;BME280;11310;51.528;21.204;2022-09-29T05:23:52;98630.03;;;9.37;100.00
22283;BME280;11310;51.528;21.204;2022-09-29T05:26:21;98645.63;;;9.39;100.00
22283;BME280;11310;51.528;21.204;2022-09-29T05:28:50;98651.81;;;9.38;100.00
22283;BME280;11310;51.528;21.204;2022-09-29T05:31:20;98651.81;;;9.38;100.00
22283;BME280;11310;51.528;21.204;2022-09-29T05:33:49;98651.72;;;9.39;100.00
22283;BME280;11310;51.528;21.204;2022-09-29T05:36:19;98655.28;;;9.38;100.00
22283;BME280;11310;51.528;21.204;2022-09-29T05:38:48;98653.50;;;9.39;100.00
22283;BME280;11310;51.528;21.204;2022-09-29T05:41:17;98651.81;;;9.38;100.00
22283;BME280;11310;51.528;21.204;2022-09-29T05:43:49;98650.88;;;9.39;100.00
22283;BME280;11310;51.528;21.204;2022-09-29T05:46:22;98647.44;;;9.38;100.00
22283;BME280;11310;51.528;21.204;2022-09-29T05:48:51;98644.72;;;9.40;100.00
22283;BME280;11310;51.528;21.204;2022-09-29T05:51:21;98650.78;;;9.40;100.00
22283;BME280;11310;51.528;21.204;2022-09-29T05:53:50;98647.13;;;9.43;100.00
22283;BME280;11310;51.528;21.204;2022-09-29T05:56:22;98653.94;;;9.45;100.00
22283;BME280;11310;51.528;21.204;2022-09-29T05:58:52;98651.41;;;9.44;100.00
22283;BME280;11310;51.528;21.204;2022-09-29T06:01:23;98655.84;;;9.43;100.00
22283;BME280;11310;51.528;21.204;2022-09-29T06:03:53;98666.94;;;9.47;100.00
22283;BME280;11310;51.528;21.204;2022-09-29T06:06:25;98669.56;;;9.47;100.00
22283;BME280;11310;51.528;21.204;2022-09-29T06:08:56;98673.84;;;9.48;100.00
22283;BME280;11310;51.528;21.204;2022-09-29T06:11:27;98675.66;;;9.47;100.00
22283;BME280;11310;51.528;21.204;2022-09-29T06:13:56;98678.25;;;9.47;100.00
22283;BME280;11310;51.528;21.204;2022-09-29T06:16:28;98681.69;;;9.48;100.00
22283;BME280;11310;51.528;21.204;2022-09-29T06:18:59;98682.47;;;9.50;100.00
22283;BME280;11310;51.528;21.204;2022-09-29T06:21:29;98678.91;;;9.51;100.00
22283;BME280;11310;51.528;21.204;2022-09-29T06:24:00;98683.84;;;9.55;100.00
22283;BME280;11310;51.528;21.204;2022-09-29T06:26:31;98683.94;;;9.54;100.00
22283;BME280;11310;51.528;21.204;2022-09-29T06:29:00;98692.63;;;9.54;100.00
22283;BME280;11310;51.528;21.204;2022-09-29T06:31:31;98700.38;;;9.56;100.00
22283;BME280;11310;51.528;21.204;2022-09-29T06:34:03;98701.03;;;9.59;100.00
22283;BME280;11310;51.528;21.204;2022-09-29T06:36:34;98703.66;;;9.59;100.00
22283;BME280;11310;51.528;21.204;2022-09-29T06:39:21;98703.47;;;9.62;100.00
22283;BME280;11310;51.528;21.204;2022-09-29T06:41:51;98697.28;;;9.63;100.00
22283;BME280;11310;51.528;21.204;2022-09-29T06:44:23;98709.88;;;9.71;100.00
22283;BME280;11310;51.528;21.204;2022-09-29T06:46:55;98712.22;;;9.75;100.00
22283;BME280;11310;51.528;21.204;2022-09-29T06:49:25;98711.09;;;9.79;100.00
22283;BME280;11310;51.528;21.204;2022-09-29T06:51:54;98710.06;;;9.82;100.00
22283;BME280;11310;51.528;21.204;2022-09-29T06:54:23;98718.66;;;9.84;100.00
22283;BME280;11310;51.528;21.204;2022-09-29T06:57:06;98722.94;;;9.85;100.00
22283;BME280;11310;51.528;21.204;2022-09-29T06:59:37;98722.03;;;9.86;100.00
22283;BME280;11310;51.528;21.204;2022-09-29T07:02:09;98716.78;;;9.86;100.00
22283;BME280;11310;51.528;21.204;2022-09-29T07:04:38;98720.31;;;9.85;100.00
22283;BME280;11310;51.528;21.204;2022-09-29T07:07:07;98721.09;;;9.87;100.00
22283;BME280;11310;51.528;21.204;2022-09-29T07:09:36;98722.56;;;9.91;100.00
22283;BME280;11310;51.528;21.204;2022-09-29T07:12:08;98728.72;;;9.90;100.00
22283;BME280;11310;51.528;21.204;2022-09-29T07:14:38;98731.16;;;9.93;100.00
22283;BME280;11310;51.528;21.204;2022-09-29T07:17:08;98733.59;;;9.96;100.00
22283;BME280;11310;51.528;21.204;2022-09-29T07:19:41;98726.69;;;9.95;100.00
22283;BME280;11310;51.528;21.204;2022-09-29T07:22:09;98722.06;;;9.98;100.00
22283;BME280;11310;51.528;21.204;2022-09-29T07:24:39;98733.09;;;10.03;100.00
22283;BME280;11310;51.528;21.204;2022-09-29T07:27:09;98733.56;;;10.10;100.00
22283;BME280;11310;51.528;21.204;2022-09-29T07:29:38;98731.41;;;10.16;100.00
22283;BME280;11310;51.528;21.204;2022-09-29T07:32:09;98730.28;;;10.20;100.00
22283;BME280;11310;51.528;21.204;2022-09-29T07:34:53;98749.06;;;10.27;100.00
22283;BME280;11310;51.528;21.204;2022-09-29T07:37:22;98748.66;;;10.33;100.00
22283;BME280;11310;51.528;21.204;2022-09-29T07:39:51;98747.50;;;10.37;100.00
22283;BME280;11310;51.528;21.204;2022-09-29T07:42:21;98745.84;;;10.36;100.00
22283;BME280;11310;51.528;21.204;2022-09-29T07:44:55;98745.94;;;10.34;100.00
22283;BME280;11310;51.528;21.204;2022-09-29T07:47:26;98746.56;;;10.38;100.00
22283;BME280;11310;51.528;21.204;2022-09-29T07:49:55;98754.22;;;10.41;100.00
22283;BME280;11310;51.528;21.204;2022-09-29T07:52:24;98760.41;;;10.40;100.00
22283;BME280;11310;51.528;21.204;2022-09-29T07:54:53;98753.47;;;10.39;100.00
22283;BME280;11310;51.528;21.204;2022-09-29T07:57:21;98756.19;;;10.37;100.00
22283;BME280;11310;51.528;21.204;2022-09-29T07:59:52;98762.28;;;10.38;100.00
22283;BME280;11310;51.528;21.204;2022-09-29T08:02:21;98757.03;;;10.38;100.00
22283;BME280;11310;51.528;21.204;2022-09-29T08:04:52;98756.44;;;10.47;100.00
22283;BME280;11310;51.528;21.204;2022-09-29T08:07:27;98765.38;;;10.57;100.00
22283;BME280;11310;51.528;21.204;2022-09-29T08:09:56;98765.91;;;10.62;100.00
22283;BME280;11310;51.528;21.204;2022-09-29T08:12:39;98767.59;;;10.63;100.00
22283;BME280;11310;51.528;21.204;2022-09-29T08:15:10;98761.97;;;10.69;100.00
22283;BME280;11310;51.528;21.204;2022-09-29T08:17:39;98759.53;;;10.66;100.00
22283;BME280;11310;51.528;21.204;2022-09-29T08:20:16;98760.28;;;10.68;100.00
22283;BME280;11310;51.528;21.204;2022-09-29T08:23:30;98764.03;;;10.64;100.00
22283;BME280;11310;51.528;21.204;2022-09-29T08:26:00;98772.72;;;10.64;100.00
22283;BME280;11310;51.528;21.204;2022-09-29T08:28:29;98764.03;;;10.64;100.00
22283;BME280;11310;51.528;21.204;2022-09-29T08:31:01;98779.56;;;10.67;100.00
22283;BME280;11310;51.528;21.204;2022-09-29T08:33:31;98777.16;;;10.64;100.00
22283;BME280;11310;51.528;21.204;2022-09-29T08:36:03;98780.50;;;10.66;100.00
22283;BME280;11310;51.528;21.204;2022-09-29T08:38:41;98791.09;;;10.64;100.00
22283;BME280;11310;51.528;21.204;2022-09-29T08:41:23;98786.69;;;10.65;100.00
22283;BME280;11310;51.528;21.204;2022-09-29T08:43:57;98800.53;;;10.67;100.00
22283;BME280;11310;51.528;21.204;2022-09-29T08:46:30;98804.53;;;10.72;100.00
22283;BME280;11310;51.528;21.204;2022-09-29T08:49:08;98800.16;;;10.73;100.00
22283;BME280;11310;51.528;21.204;2022-09-29T08:51:44;98799.22;;;10.74;100.00
22283;BME280;11310;51.528;21.204;2022-09-29T08:54:21;98805.19;;;10.76;100.00
22283;BME280;11310;51.528;21.204;2022-09-29T08:57:04;98806.84;;;10.77;100.00
22283;BME280;11310;51.528;21.204;2022-09-29T08:59:35;98801.59;;;10.77;100.00
22283;BME280;11310;51.528;21.204;2022-09-29T09:05:13;98803.53;;;10.87;100.00
22283;BME280;11310;51.528;21.204;2022-09-29T09:07:48;98800.63;;;10.92;100.00
22283;BME280;11310;51.528;21.204;2022-09-29T09:10:37;98809.84;;;10.97;100.00
22283;BME280;11310;51.528;21.204;2022-09-29T09:13:30;98813.66;;;11.06;100.00
22283;BME280;11310;51.528;21.204;2022-09-29T09:16:11;98808.06;;;11.10;100.00
22283;BME280;11310;51.528;21.204;2022-09-29T09:18:55;98806.09;;;11.14;100.00
22283;BME280;11310;51.528;21.204;2022-09-29T09:21:34;98821.34;;;11.21;100.00
22283;BME280;11310;51.528;21.204;2022-09-29T09:24:15;98813.88;;;11.28;100.00
22283;BME280;11310;51.528;21.204;2022-09-29T09:26:51;98811.78;;;11.33;100.00
22283;BME280;11310;51.528;21.204;2022-09-29T09:29:26;98822.38;;;11.44;100.00
22283;BME280;11310;51.528;21.204;2022-09-29T09:32:07;98831.72;;;11.48;100.00
22283;BME280;11310;51.528;21.204;2022-09-29T09:34:41;98830.47;;;11.53;100.00
22283;BME280;11310;51.528;21.204;2022-09-29T09:37:15;98842.47;;;11.57;100.00
22283;BME280;11310;51.528;21.204;2022-09-29T09:39:53;98841.97;;;11.65;100.00
22283;BME280;11310;51.528;21.204;2022-09-29T09:42:26;98848.53;;;11.70;100.00
22283;BME280;11310;51.528;21.204;2022-09-29T09:45:02;98836.78;;;11.76;100.00
22283;BME280;11310;51.528;21.204;2022-09-29T09:47:35;98846.44;;;11.88;100.00
22283;BME280;11310;51.528;21.204;2022-09-29T09:50:24;98848.53;;;11.96;100.00
22283;BME280;11310;51.528;21.204;2022-09-29T09:52:56;98839.50;;;12.00;100.00
22283;BME280;11310;51.528;21.204;2022-09-29T09:55:28;98846.84;;;12.07;100.00
22283;BME280;11310;51.528;21.204;2022-09-29T09:58:11;98850.28;;;12.20;100.00
22283;BME280;11310;51.528;21.204;2022-09-29T10:00:48;98850.78;;;12.25;100.00
22283;BME280;11310;51.528;21.204;2022-09-29T10:03:18;98855.53;;;12.20;100.00
22283;BME280;11310;51.528;21.204;2022-09-29T10:05:50;98854.56;;;12.21;100.00
22283;BME280;11310;51.528;21.204;2022-09-29T10:08:23;98860.78;;;12.20;100.00
22283;BME280;11310;51.528;21.204;2022-09-29T10:10:55;98853.88;;;12.19;100.00
22283;BME280;11310;51.528;21.204;2022-09-29T10:13:27;98862.97;;;12.26;100.00
22283;BME280;11310;51.528;21.204;2022-09-29T10:15:59;98869.69;;;12.30;100.00
22283;BME280;11310;51.528;21.204;2022-09-29T10:18:36;98864.94;;;12.35;100.00
22283;BME280;11310;51.528;21.204;2022-09-29T10:21:18;98871.22;;;12.45;100.00
22283;BME280;11310;51.528;21.204;2022-09-29T10:23:50;98873.88;;;12.69;100.00
22283;BME280;11310;51.528;21.204;2022-09-29T10:26:23;98870.81;;;12.98;100.00
22283;BME280;11310;51.528;21.204;2022-09-29T10:28:54;98873.09;;;13.03;100.00
22283;BME280;11310;51.528;21.204;2022-09-29T10:31:26;98880.56;;;12.96;100.00
22283;BME280;11310;51.528;21.204;2022-09-29T10:33:56;98887.84;;;12.82;100.00
22283;BME280;11310;51.528;21.204;2022-09-29T10:36:28;98886.81;;;12.72;100.00
22283;BME280;11310;51.528;21.204;2022-09-29T10:38:59;98880.22;;;12.66;100.00
22283;BME280;11310;51.528;21.204;2022-09-29T10:41:49;98885.19;;;12.58;100.00
22283;BME280;11310;51.528;21.204;2022-09-29T10:44:21;98880.78;;;12.59;100.00
22283;BME280;11310;51.528;21.204;2022-09-29T10:46:52;98885.81;;;12.85;100.00
22283;BME280;11310;51.528;21.204;2022-09-29T10:49:24;98882.91;;;13.24;100.00
22283;BME280;11310;51.528;21.204;2022-09-29T10:51:58;98884.91;;;13.77;100.00
22283;BME280;11310;51.528;21.204;2022-09-29T10:54:31;98881.72;;;14.29;100.00
22283;BME280;11310;51.528;21.204;2022-09-29T10:57:12;98890.38;;;14.84;99.24
22283;BME280;11310;51.528;21.204;2022-09-29T10:59:46;98887.28;;;14.68;100.00
22283;BME280;11310;51.528;21.204;2022-09-29T11:02:21;98893.19;;;14.50;100.00
22283;BME280;11310;51.528;21.204;2022-09-29T11:04:53;98883.03;;;14.23;100.00
22283;BME280;11310;51.528;21.204;2022-09-29T11:07:23;98890.94;;;13.90;98.76
22283;BME280;11310;51.528;21.204;2022-09-29T11:09:53;98885.13;;;13.74;100.00
22283;BME280;11310;51.528;21.204;2022-09-29T11:12:33;98896.28;;;13.56;100.00
22283;BME280;11310;51.528;21.204;2022-09-29T11:15:22;98906.41;;;13.38;100.00
22283;BME280;11310;51.528;21.204;2022-09-29T11:17:51;98893.44;;;13.24;100.00
22283;BME280;11310;51.528;21.204;2022-09-29T11:20:29;98904.75;;;13.14;100.00
22283;BME280;11310;51.528;21.204;2022-09-29T11:23:21;98897.19;;;13.09;100.00
22283;BME280;11310;51.528;21.204;2022-09-29T11:26:15;98897.19;;;13.09;100.00
22283;BME280;11310;51.528;21.204;2022-09-29T11:29:03;98888.56;;;13.07;100.00
22283;BME280;11310;51.528;21.204;2022-09-29T11:31:51;98892.03;;;13.08;100.00
22283;BME280;11310;51.528;21.204;2022-09-29T11:37:29;98897.66;;;13.03;100.00
22283;BME280;11310;51.528;21.204;2022-09-29T11:40:10;98894.66;;;13.08;100.00
22283;BME280;11310;51.528;21.204;2022-09-29T11:42:50;98898.84;;;13.10;100.00
22283;BME280;11310;51.528;21.204;2022-09-29T11:45:35;98909.28;;;13.12;100.00
22283;BME280;11310;51.528;21.204;2022-09-29T11:48:33;98898.19;;;13.19;100.00
22283;BME280;11310;51.528;21.204;2022-09-29T11:51:14;98899.63;;;13.23;100.00
22283;BME280;11310;51.528;21.204;2022-09-29T11:54:05;98901.56;;;13.21;100.00
22283;BME280;11310;51.528;21.204;2022-09-29T11:56:47;98899.59;;;13.12;100.00
22283;BME280;11310;51.528;21.204;2022-09-29T11:59:36;98900.59;;;12.99;100.00
22283;BME280;11310;51.528;21.204;2022-09-29T12:05:17;98903.63;;;13.05;100.00
22283;BME280;11310;51.528;21.204;2022-09-29T12:07:54;98896.13;;;13.12;100.00
22283;BME280;11310;51.528;21.204;2022-09-29T12:10:36;98896.75;;;13.15;100.00
22283;BME280;11310;51.528;21.204;2022-09-29T12:13:17;98903.69;;;13.16;100.00
22283;BME280;11310;51.528;21.204;2022-09-29T12:15:52;98903.81;;;13.15;100.00
22283;BME280;11310;51.528;21.204;2022-09-29T12:18:30;98910.63;;;13.17;100.00
22283;BME280;11310;51.528;21.204;2022-09-29T12:21:03;98907.34;;;13.37;100.00
22283;BME280;11310;51.528;21.204;2022-09-29T12:23:35;98916.31;;;13.91;100.00
22283;BME280;11310;51.528;21.204;2022-09-29T12:26:08;98905.81;;;15.31;96.06
22283;BME280;11310;51.528;21.204;2022-09-29T12:28:41;98907.25;;;16.57;89.01
22283;BME280;11310;51.528;21.204;2022-09-29T12:31:15;98908.78;;;17.46;83.72
22283;BME280;11310;51.528;21.204;2022-09-29T12:33:50;98909.19;;;18.16;81.14
22283;BME280;11310;51.528;21.204;2022-09-29T12:36:46;98911.69;;;18.81;75.89
22283;BME280;11310;51.528;21.204;2022-09-29T12:39:30;98918.47;;;18.93;75.90
22283;BME280;11310;51.528;21.204;2022-09-29T12:42:15;98933.59;;;17.83;79.81
22283;BME280;11310;51.528;21.204;2022-09-29T12:44:52;98916.91;;;16.77;85.51
22283;BME280;11310;51.528;21.204;2022-09-29T12:47:30;98927.13;;;15.91;90.16
22283;BME280;11310;51.528;21.204;2022-09-29T12:50:12;98924.84;;;16.67;87.35
22283;BME280;11310;51.528;21.204;2022-09-29T12:52:47;98923.69;;;17.47;83.96
22283;BME280;11310;51.528;21.204;2022-09-29T12:55:27;98929.38;;;16.95;85.95
22283;BME280;11310;51.528;21.204;2022-09-29T12:58:03;98935.09;;;17.10;86.95
22283;BME280;11310;51.528;21.204;2022-09-29T13:00:35;98934.97;;;17.87;83.18
22283;BME280;11310;51.528;21.204;2022-09-29T13:06:38;98932.75;;;18.92;75.05
22283;BME280;11310;51.528;21.204;2022-09-29T13:09:32;98933.00;;;18.45;74.25
22283;BME280;11310;51.528;21.204;2022-09-29T13:12:40;98944.03;;;17.28;78.45
22283;BME280;11310;51.528;21.204;2022-09-29T13:15:34;98927.25;;;16.89;81.66
22283;BME280;11310;51.528;21.204;2022-09-29T13:21:51;98930.94;;;18.39;77.55
22283;BME280;11310;51.528;21.204;2022-09-29T13:24:33;98936.09;;;18.94;76.00
22283;BME280;11310;51.528;21.204;2022-09-29T13:27:30;98937.47;;;18.98;69.91
22283;BME280;11310;51.528;21.204;2022-09-29T13:30:04;98949.00;;;18.16;79.49
22283;BME280;11310;51.528;21.204;2022-09-29T13:32:38;98946.81;;;17.26;82.92
22283;BME280;11310;51.528;21.204;2022-09-29T13:35:12;98943.66;;;16.64;88.01
22283;BME280;11310;51.528;21.204;2022-09-29T13:37:50;98942.75;;;15.94;89.43
22283;BME280;11310;51.528;21.204;2022-09-29T13:40:22;98948.47;;;15.38;94.07
22283;BME280;11310;51.528;21.204;2022-09-29T13:42:55;98935.47;;;15.03;95.73
22283;BME280;11310;51.528;21.204;2022-09-29T13:45:42;98950.41;;;14.71;95.41